Main page
METAR-TAF:

METAR-TAF

Airports :

Hamadan International Airport

Hamedan, Iran

latitude: 34-52-05N, longitude: 048-33-08E, elevation: 1757 m

Current weather observation

The report was made 4 hours and 6 minutes ago, at 13:00 UTC
Wind 12 kt from the West
Temperature 13°C
Humidity 72%
Pressure 1022 hPa
Visibility: 8000 m
Scattered clouds at a height of 3000 ft, Cumulonimbus.
Scattered clouds at a height of 3500 ft
thunderstorm, rain

METAR: OIHH 181300Z 26012KT 8000 TSRA SCT030CB SCT035 13/08 Q1022

Time: 20:36 (17:06 UTC)


TAF: missing

Weather observations and forecasts of more than 4000 airports (METAR and TAF reports).

The available stations are represented by yellow and red dots on the map.

Hover mouse over dot to see the name of the station.

Then click to see weather observations and forecasts.

To change the map : click on the green buttons with a black cross to zoom in, on the green button with a dash to zoom out, or on the green arrows for adjacent maps.


METAR-TAF: